createdAt,value
2022-10-04T00:00:47.644Z,3.78
2022-10-04T00:03:19.819Z,2.63
2022-10-04T00:05:49.178Z,4.03
2022-10-04T00:08:25.479Z,2.27
2022-10-04T00:11:02.817Z,2.92
2022-10-04T00:13:30.330Z,3.75
2022-10-04T00:15:57.786Z,2.42
2022-10-04T00:18:30.099Z,3.15
2022-10-04T00:21:02.707Z,2.95
2022-10-04T00:23:42.096Z,3.60
2022-10-04T00:26:14.210Z,2.80
2022-10-04T00:28:45.487Z,2.35
2022-10-04T00:31:18.113Z,3.75
2022-10-04T00:33:46.060Z,3.88
2022-10-04T00:36:41.666Z,2.55
2022-10-04T00:39:18.413Z,2.55
2022-10-04T00:41:58.441Z,3.00
2022-10-04T00:44:29.357Z,3.38
2022-10-04T00:46:56.904Z,2.42
2022-10-04T00:49:25.324Z,3.33
2022-10-04T00:51:54.088Z,3.33
2022-10-04T00:54:24.043Z,2.88
2022-10-04T00:56:53.123Z,4.32
2022-10-04T00:59:28.995Z,5.55
2022-10-04T01:01:59.334Z,2.20
2022-10-04T01:04:34.729Z,2.92
2022-10-04T01:07:03.039Z,3.70
2022-10-04T01:09:32.361Z,3.35
2022-10-04T01:12:02.970Z,3.10
2022-10-04T01:14:33.457Z,3.90
2022-10-04T01:17:00.899Z,2.97
2022-10-04T01:19:31.100Z,3.03
2022-10-04T01:24:28.212Z,4.72
2022-10-04T01:26:55.689Z,3.78
2022-10-04T01:29:26.024Z,4.88
2022-10-04T01:31:54.426Z,6.05
2022-10-04T01:34:22.678Z,3.95
2022-10-04T01:36:52.406Z,3.28
2022-10-04T01:39:21.171Z,3.92
2022-10-04T01:41:53.884Z,4.25
2022-10-04T01:44:25.675Z,5.47
2022-10-04T01:46:53.562Z,3.58
2022-10-04T01:49:21.999Z,3.22
2022-10-04T01:51:55.202Z,4.78
2022-10-04T01:54:24.895Z,3.15
2022-10-04T01:56:57.303Z,4.97
2022-10-04T01:59:26.597Z,3.58
2022-10-04T02:01:56.652Z,6.60
2022-10-04T02:04:27.185Z,3.70
2022-10-04T02:06:56.446Z,5.03
2022-10-04T02:09:25.001Z,4.73
2022-10-04T02:11:53.980Z,2.85
2022-10-04T02:14:22.566Z,3.47
2022-10-04T02:16:52.116Z,2.85
2022-10-04T02:19:19.875Z,4.25
2022-10-04T02:21:47.560Z,3.85
2022-10-04T02:24:16.021Z,3.15
2022-10-04T02:26:43.497Z,3.08
2022-10-04T02:29:12.283Z,4.25
2022-10-04T02:31:57.447Z,4.88
2022-10-04T02:34:24.862Z,2.85
2022-10-04T02:36:52.462Z,4.07
2022-10-04T02:39:22.879Z,4.10
2022-10-04T02:41:51.817Z,5.30
2022-10-04T02:44:21.690Z,4.88
2022-10-04T02:46:51.317Z,5.57
2022-10-04T02:49:22.032Z,3.22
2022-10-04T02:51:50.953Z,5.07
2022-10-04T02:54:21.607Z,4.85
2022-10-04T02:56:52.390Z,3.95
2022-10-04T02:59:21.203Z,4.50
2022-10-04T03:01:51.436Z,4.32
2022-10-04T03:04:21.003Z,3.78
2022-10-04T03:06:48.828Z,4.68
2022-10-04T03:09:16.471Z,6.07
2022-10-04T03:11:44.165Z,4.28
2022-10-04T03:14:14.724Z,4.15
2022-10-04T03:16:44.389Z,5.40
2022-10-04T03:19:11.859Z,5.97
2022-10-04T03:21:39.929Z,3.58
2022-10-04T03:24:07.486Z,3.85
2022-10-04T03:26:37.675Z,5.90
2022-10-04T03:29:07.280Z,3.83
2022-10-04T03:31:34.724Z,3.47
2022-10-04T03:34:03.497Z,6.50
2022-10-04T03:36:30.950Z,4.35
2022-10-04T03:38:58.379Z,3.45
2022-10-04T03:41:26.198Z,5.78
2022-10-04T03:43:54.575Z,6.28
2022-10-04T03:46:23.091Z,4.43
2022-10-04T03:48:52.048Z,4.20
2022-10-04T03:51:24.000Z,5.03
2022-10-04T03:53:52.493Z,4.20
2022-10-04T03:56:21.463Z,5.20
2022-10-04T03:58:48.921Z,4.68
2022-10-04T04:01:21.494Z,7.95
2022-10-04T04:03:56.072Z,6.07
2022-10-04T04:06:24.836Z,3.70
2022-10-04T04:08:53.739Z,4.78
2022-10-04T04:11:23.433Z,3.28
2022-10-04T04:13:52.771Z,4.82
2022-10-04T04:16:20.518Z,4.73
2022-10-04T04:18:47.948Z,5.03
2022-10-04T04:21:16.135Z,3.92
2022-10-04T04:23:48.513Z,5.05
2022-10-04T04:26:19.649Z,4.03
2022-10-04T04:28:48.972Z,5.20
2022-10-04T04:31:19.410Z,5.20
2022-10-04T04:33:48.791Z,5.13
2022-10-04T04:36:17.014Z,5.13
2022-10-04T04:38:59.727Z,3.33
2022-10-04T04:41:27.437Z,4.28
2022-10-04T04:43:54.857Z,5.53
2022-10-04T04:46:27.537Z,5.70
2022-10-04T04:49:01.140Z,4.40
2022-10-04T04:51:28.603Z,3.65
2022-10-04T04:53:57.340Z,5.80
2022-10-04T04:56:26.552Z,4.22
2022-10-04T04:58:54.407Z,4.10
2022-10-04T05:01:24.390Z,3.85
2022-10-04T05:04:02.099Z,7.43
2022-10-04T05:06:34.440Z,4.32
2022-10-04T05:09:03.187Z,2.60
2022-10-04T05:11:31.861Z,3.92
2022-10-04T05:14:00.664Z,3.08
2022-10-04T05:16:29.240Z,3.50
2022-10-04T05:18:56.798Z,3.40
2022-10-04T05:21:26.228Z,4.10
2022-10-04T05:23:53.644Z,3.08
2022-10-04T05:26:31.236Z,3.92
2022-10-04T05:29:00.782Z,3.38
2022-10-04T05:31:36.623Z,3.47
2022-10-04T05:34:04.915Z,4.38
2022-10-04T05:37:01.880Z,2.95
2022-10-04T05:39:30.385Z,3.63
2022-10-04T05:42:02.511Z,3.58
2022-10-04T05:44:30.571Z,3.85
2022-10-04T05:46:58.403Z,4.22
2022-10-04T05:49:26.401Z,5.40
2022-10-04T05:51:55.031Z,4.53
2022-10-04T05:54:23.388Z,4.20
2022-10-04T05:57:08.489Z,4.07
2022-10-04T05:59:52.052Z,4.15
2022-10-04T06:02:25.181Z,12.27
2022-10-04T06:04:59.912Z,6.55
2022-10-04T06:07:30.981Z,11.00
2022-10-04T06:10:20.739Z,12.30
2022-10-04T06:12:53.156Z,8.13
2022-10-04T06:15:27.957Z,7.88
2022-10-04T06:18:05.986Z,10.80
2022-10-04T06:21:03.087Z,13.48
2022-10-04T06:23:30.503Z,18.23
2022-10-04T06:25:59.404Z,15.55
2022-10-04T06:28:30.601Z,17.08
2022-10-04T06:31:10.957Z,16.08
2022-10-04T06:33:50.420Z,31.58
2022-10-04T06:36:30.766Z,22.52
2022-10-04T06:39:19.229Z,27.05
2022-10-04T06:41:56.214Z,30.63
2022-10-04T06:44:32.241Z,31.35
2022-10-04T06:47:04.724Z,20.98
2022-10-04T06:49:34.437Z,32.05
2022-10-04T06:52:30.650Z,35.22
2022-10-04T06:55:21.877Z,27.30
2022-10-04T06:58:09.869Z,30.98
2022-10-04T07:00:41.105Z,25.10
2022-10-04T07:03:12.269Z,23.77
2022-10-04T07:05:41.024Z,23.45
2022-10-04T07:08:30.922Z,23.95
2022-10-04T07:11:00.520Z,26.15
2022-10-04T07:13:40.867Z,28.33
2022-10-04T07:16:13.347Z,26.05
2022-10-04T07:18:45.117Z,19.73
2022-10-04T07:21:13.825Z,21.48
2022-10-04T07:23:45.747Z,24.55
2022-10-04T07:26:19.342Z,24.90
2022-10-04T07:29:04.592Z,22.08
2022-10-04T07:31:35.218Z,16.83
2022-10-04T07:34:03.387Z,12.98
2022-10-04T07:36:32.976Z,19.73
2022-10-04T07:39:01.970Z,13.40
2022-10-04T07:41:30.926Z,13.75
2022-10-04T07:43:59.390Z,15.07
2022-10-04T07:46:38.540Z,13.90
2022-10-04T07:49:05.924Z,15.77
2022-10-04T07:51:35.206Z,15.27
2022-10-04T07:54:03.381Z,19.20
2022-10-04T07:56:33.909Z,27.85
2022-10-04T07:59:08.430Z,19.38
2022-10-04T08:01:39.299Z,19.77
2022-10-04T08:04:15.268Z,18.75
2022-10-04T08:06:56.296Z,19.60
2022-10-04T08:09:34.875Z,42.13
2022-10-04T08:12:07.035Z,27.70
2022-10-04T08:14:40.918Z,25.33
2022-10-04T08:17:15.755Z,23.20
2022-10-04T08:19:48.412Z,19.15
2022-10-04T08:22:22.135Z,25.05
2022-10-04T08:24:54.383Z,21.38
2022-10-04T08:27:36.731Z,20.17
2022-10-04T08:30:11.176Z,18.83
2022-10-04T08:32:52.882Z,13.20
2022-10-04T08:35:37.464Z,17.13
2022-10-04T08:38:21.128Z,20.55
2022-10-04T08:41:19.005Z,20.80
2022-10-04T08:44:23.097Z,16.80
2022-10-04T08:47:13.931Z,13.25
2022-10-04T08:50:04.099Z,15.18
2022-10-04T08:55:46.963Z,15.18
2022-10-04T08:58:23.402Z,20.17
2022-10-04T09:00:58.472Z,14.10
2022-10-04T09:03:49.876Z,17.88
2022-10-04T09:06:38.770Z,14.82
2022-10-04T09:10:03.194Z,9.70
2022-10-04T09:12:47.118Z,15.73
2022-10-04T09:15:35.477Z,14.90
2022-10-04T09:18:05.316Z,14.10
2022-10-04T09:20:43.144Z,13.90
2022-10-04T09:23:37.239Z,15.43
2022-10-04T09:26:11.185Z,14.57
2022-10-04T09:29:04.750Z,12.48
2022-10-04T09:31:47.749Z,11.65
2022-10-04T09:34:23.838Z,13.82
2022-10-04T09:37:23.080Z,19.88
2022-10-04T09:40:15.860Z,19.93
2022-10-04T09:43:14.164Z,15.65
2022-10-04T09:45:50.865Z,12.18
2022-10-04T09:48:26.239Z,16.65
2022-10-04T09:51:16.825Z,13.60
2022-10-04T09:53:54.507Z,12.10
2022-10-04T09:56:34.137Z,12.55
2022-10-04T09:59:23.434Z,9.10
2022-10-04T10:04:26.913Z,9.43
2022-10-04T10:07:15.036Z,16.17
2022-10-04T10:10:03.066Z,14.20
2022-10-04T10:12:58.627Z,15.65
2022-10-04T10:15:28.724Z,21.48
2022-10-04T10:20:35.496Z,10.57
2022-10-04T10:23:21.723Z,20.73
2022-10-04T10:25:59.028Z,10.55
2022-10-04T10:28:40.639Z,20.92
2022-10-04T10:31:21.504Z,22.08
2022-10-04T10:34:14.965Z,11.43
2022-10-04T10:36:50.169Z,11.32
2022-10-04T10:39:42.450Z,13.30
2022-10-04T10:42:39.038Z,14.82
2022-10-04T10:45:16.468Z,12.52
2022-10-04T10:47:46.330Z,12.50
2022-10-04T10:50:25.500Z,12.93
2022-10-04T10:53:17.473Z,11.93
2022-10-04T10:56:17.685Z,10.38
2022-10-04T11:01:47.216Z,11.00
2022-10-04T11:04:36.249Z,14.18
2022-10-04T11:07:13.993Z,11.18
2022-10-04T11:09:52.607Z,12.52
2022-10-04T11:12:34.677Z,8.65
2022-10-04T11:15:38.881Z,32.50
2022-10-04T11:18:45.053Z,14.30
2022-10-04T11:21:45.941Z,11.00
2022-10-04T11:24:32.331Z,11.35
2022-10-04T11:27:17.189Z,11.15
2022-10-04T11:29:55.139Z,8.93
2022-10-04T11:32:41.288Z,10.38
2022-10-04T11:35:50.228Z,10.75
2022-10-04T11:38:30.976Z,11.13
2022-10-04T11:41:10.814Z,11.07
2022-10-04T11:43:48.191Z,10.35
2022-10-04T11:46:35.967Z,10.18
2022-10-04T11:49:11.133Z,7.35
2022-10-04T11:52:04.423Z,14.50
2022-10-04T11:54:51.969Z,8.50
2022-10-04T11:57:27.635Z,10.65
2022-10-04T12:00:00.772Z,9.55
2022-10-04T12:02:56.493Z,7.75
2022-10-04T12:05:53.793Z,7.82
2022-10-04T12:08:25.792Z,8.95
2022-10-04T12:11:25.186Z,8.82
2022-10-04T12:13:59.624Z,6.28
2022-10-04T12:16:38.230Z,6.38
2022-10-04T12:19:27.784Z,7.20
2022-10-04T12:22:15.682Z,7.72
2022-10-04T12:25:07.939Z,6.22
2022-10-04T12:28:11.479Z,7.18
2022-10-04T12:30:44.495Z,7.65
2022-10-04T12:33:13.983Z,5.53
2022-10-04T12:35:57.317Z,6.95
2022-10-04T12:38:55.155Z,6.95
2022-10-04T12:41:31.135Z,9.15
2022-10-04T12:44:07.757Z,7.70
2022-10-04T12:46:39.330Z,11.57
2022-10-04T12:49:21.610Z,9.90
2022-10-04T12:51:55.404Z,9.18
2022-10-04T12:54:33.381Z,11.60
2022-10-04T12:57:07.256Z,6.85
2022-10-04T12:59:48.379Z,8.70
2022-10-04T13:02:23.353Z,10.55
2022-10-04T13:04:52.437Z,11.63
2022-10-04T13:07:31.702Z,10.80
2022-10-04T13:10:24.031Z,8.13
2022-10-04T13:13:11.068Z,7.05
2022-10-04T13:18:30.452Z,13.00
2022-10-04T13:21:01.120Z,6.85
2022-10-04T13:23:37.620Z,7.10
2022-10-04T13:26:16.357Z,5.97
2022-10-04T13:28:47.860Z,5.55
2022-10-04T13:31:21.748Z,9.82
2022-10-04T13:33:52.076Z,11.05
2022-10-04T13:36:21.038Z,8.75
2022-10-04T13:39:16.995Z,9.20
2022-10-04T13:41:57.218Z,7.93
2022-10-04T13:44:51.650Z,8.05
2022-10-04T13:47:34.626Z,7.47
2022-10-04T13:50:09.971Z,5.32
2022-10-04T13:52:59.996Z,5.93
2022-10-04T13:55:46.860Z,5.22
2022-10-04T13:58:22.450Z,3.38
2022-10-04T14:01:05.900Z,4.65
2022-10-04T14:03:42.345Z,5.07
2022-10-04T14:06:27.892Z,6.40
2022-10-04T14:09:23.181Z,5.63
2022-10-04T14:12:09.885Z,5.13
2022-10-04T14:15:18.768Z,5.05
2022-10-04T14:18:27.536Z,5.50
2022-10-04T14:21:39.826Z,5.22
2022-10-04T14:24:45.815Z,6.38
2022-10-04T14:27:37.297Z,6.05
2022-10-04T14:30:23.193Z,6.28
2022-10-04T14:33:32.578Z,4.68
2022-10-04T14:36:29.573Z,5.13
2022-10-04T14:39:18.868Z,4.95
2022-10-04T14:42:11.601Z,4.77
2022-10-04T14:45:07.882Z,5.28
2022-10-04T14:48:07.137Z,5.07
2022-10-04T14:50:41.192Z,4.03
2022-10-04T14:53:14.932Z,5.05
2022-10-04T14:56:09.137Z,4.47
2022-10-04T14:58:41.013Z,4.70
2022-10-04T15:01:22.609Z,4.45
2022-10-04T15:04:01.297Z,5.03
2022-10-04T15:06:36.933Z,5.78
2022-10-04T15:09:20.929Z,5.40
2022-10-04T15:12:21.458Z,4.55
2022-10-04T15:14:42.689Z,3.95
2022-10-04T15:17:12.514Z,4.70
2022-10-04T15:20:00.982Z,7.53
2022-10-04T15:22:29.575Z,4.53
2022-10-04T15:24:57.089Z,3.92
2022-10-04T15:27:47.164Z,4.53
2022-10-04T15:32:51.034Z,3.70
2022-10-04T15:35:22.970Z,5.93
2022-10-04T15:37:53.485Z,4.47
2022-10-04T15:40:30.515Z,5.38
2022-10-04T15:43:07.313Z,4.57
2022-10-04T15:46:15.290Z,4.25
2022-10-04T15:48:57.630Z,3.53
2022-10-04T15:51:42.283Z,3.45
2022-10-04T15:54:15.344Z,4.30
2022-10-04T15:56:46.333Z,4.22
2022-10-04T15:59:41.293Z,4.15
2022-10-04T16:02:22.365Z,3.22
2022-10-04T16:04:58.528Z,3.72
2022-10-04T16:07:39.727Z,4.18
2022-10-04T16:10:18.939Z,3.45
2022-10-04T16:13:26.162Z,3.50
2022-10-04T16:16:26.344Z,3.47
2022-10-04T16:18:55.605Z,5.07
2022-10-04T16:21:29.920Z,3.10
2022-10-04T16:24:30.503Z,4.32
2022-10-04T16:27:13.881Z,4.38
2022-10-04T16:29:44.906Z,3.78
2022-10-04T16:32:13.312Z,3.83
2022-10-04T16:34:48.833Z,4.35
2022-10-04T16:37:22.182Z,4.35
2022-10-04T16:40:00.692Z,4.53
2022-10-04T16:42:29.858Z,3.08
2022-10-04T16:44:59.692Z,3.30
2022-10-04T16:47:29.278Z,4.28
2022-10-04T16:49:57.837Z,4.70
2022-10-04T16:52:49.526Z,3.17
2022-10-04T16:55:22.500Z,3.88
2022-10-04T16:58:22.476Z,3.47
2022-10-04T17:00:49.988Z,4.00
2022-10-04T17:03:20.333Z,4.18
2022-10-04T17:06:02.911Z,4.43
2022-10-04T17:08:49.763Z,4.97
2022-10-04T17:11:44.683Z,5.45
2022-10-04T17:14:32.186Z,4.53
2022-10-04T17:17:01.490Z,5.38
2022-10-04T17:19:32.703Z,4.38
2022-10-04T17:22:06.979Z,6.63
2022-10-04T17:24:43.140Z,6.25
2022-10-04T17:27:26.035Z,4.78
2022-10-04T17:30:04.384Z,4.78
2022-10-04T17:32:36.278Z,4.88
2022-10-04T17:35:13.179Z,6.35
2022-10-04T17:37:44.540Z,4.75
2022-10-04T17:40:28.525Z,4.28
2022-10-04T17:43:00.013Z,6.75
2022-10-04T17:45:45.571Z,5.05
2022-10-04T17:48:32.623Z,3.63
2022-10-04T17:51:19.492Z,4.55
2022-10-04T17:54:06.152Z,5.30
2022-10-04T17:56:37.690Z,4.80
2022-10-04T17:59:08.526Z,3.95
2022-10-04T18:01:37.118Z,4.55
2022-10-04T18:04:09.291Z,4.13
2022-10-04T18:06:38.706Z,5.78
2022-10-04T18:09:09.888Z,4.05
2022-10-04T18:11:44.041Z,5.88
2022-10-04T18:14:13.186Z,4.07
2022-10-04T18:16:47.464Z,4.45
2022-10-04T18:19:37.861Z,4.60
2022-10-04T18:22:10.947Z,5.13
2022-10-04T18:24:38.391Z,4.13
2022-10-04T18:27:18.347Z,6.07
2022-10-04T18:30:00.399Z,6.43
2022-10-04T18:32:35.604Z,5.45
2022-10-04T18:35:08.266Z,4.50
2022-10-04T18:37:37.129Z,5.53
2022-10-04T18:40:11.890Z,4.80
2022-10-04T18:42:43.004Z,5.32
2022-10-04T18:45:20.158Z,4.57
2022-10-04T18:47:50.648Z,5.20
2022-10-04T18:50:23.917Z,4.88
2022-10-04T18:53:08.172Z,7.50
2022-10-04T18:55:40.429Z,4.57
2022-10-04T18:58:49.276Z,4.30
2022-10-04T19:01:45.558Z,4.78
2022-10-04T19:04:15.249Z,4.75
2022-10-04T19:06:42.833Z,4.38
2022-10-04T19:09:14.160Z,4.45
2022-10-04T19:11:44.090Z,3.80
2022-10-04T19:14:20.767Z,5.60
2022-10-04T19:16:51.085Z,3.90
2022-10-04T19:19:31.992Z,3.80
2022-10-04T19:22:02.059Z,3.78
2022-10-04T19:27:18.186Z,4.07
2022-10-04T19:29:54.838Z,3.78
2022-10-04T19:32:27.333Z,4.25
2022-10-04T19:34:59.252Z,4.65
2022-10-04T19:37:27.540Z,3.67
2022-10-04T19:39:59.917Z,4.05
2022-10-04T19:42:29.366Z,5.18
2022-10-04T19:45:06.006Z,3.85
2022-10-04T19:47:41.324Z,4.72
2022-10-04T19:50:17.647Z,4.13
2022-10-04T19:52:51.424Z,5.47
2022-10-04T19:55:22.912Z,4.47
2022-10-04T19:57:51.884Z,4.18
2022-10-04T20:00:21.916Z,5.18
2022-10-04T20:02:49.949Z,6.65
2022-10-04T20:05:20.031Z,6.15
2022-10-04T20:07:50.814Z,4.38
2022-10-04T20:10:24.237Z,4.13
2022-10-04T20:13:23.369Z,4.60
2022-10-04T20:15:53.392Z,4.05
2022-10-04T20:19:04.993Z,4.68
2022-10-04T20:21:32.768Z,3.88
2022-10-04T20:24:01.399Z,5.47
2022-10-04T20:26:53.705Z,4.68
2022-10-04T20:30:07.464Z,4.38
2022-10-04T20:32:58.376Z,4.63
2022-10-04T20:36:09.516Z,6.28
2022-10-04T20:39:05.881Z,5.30
2022-10-04T20:42:22.293Z,4.93
2022-10-04T20:44:54.151Z,3.47
2022-10-04T20:47:39.184Z,4.00
2022-10-04T20:50:36.318Z,3.97
2022-10-04T20:53:05.975Z,4.18
2022-10-04T20:55:34.866Z,3.70
2022-10-04T20:58:03.109Z,4.82
2022-10-04T21:00:34.258Z,4.10
2022-10-04T21:03:09.589Z,3.92
2022-10-04T21:05:39.473Z,4.25
2022-10-04T21:08:31.136Z,3.80
2022-10-04T21:11:22.410Z,4.30
2022-10-04T21:13:54.804Z,4.13
2022-10-04T21:16:41.975Z,3.92
2022-10-04T21:19:50.133Z,4.28
2022-10-04T21:22:40.960Z,4.78
2022-10-04T21:25:31.832Z,4.13
2022-10-04T21:28:33.596Z,8.25
2022-10-04T21:31:01.378Z,5.57
2022-10-04T21:33:28.848Z,3.50
2022-10-04T21:35:56.269Z,3.70
2022-10-04T21:38:25.034Z,3.88
2022-10-04T21:40:52.734Z,5.82
2022-10-04T21:43:20.164Z,4.95
2022-10-04T21:45:47.610Z,3.83
2022-10-04T21:48:15.103Z,5.07
2022-10-04T21:50:43.417Z,3.90
2022-10-04T21:53:11.000Z,3.97
2022-10-04T21:55:39.772Z,4.68
2022-10-04T21:58:07.223Z,4.63
2022-10-04T22:00:34.646Z,4.25
2022-10-04T22:03:02.065Z,3.58
2022-10-04T22:05:29.516Z,3.47
2022-10-04T22:07:58.097Z,3.70
2022-10-04T22:10:25.565Z,4.00
2022-10-04T22:12:56.755Z,4.45
2022-10-04T22:15:25.756Z,4.43
2022-10-04T22:17:53.428Z,4.10
2022-10-04T22:20:20.848Z,4.28
2022-10-04T22:22:48.291Z,4.80
2022-10-04T22:25:16.670Z,3.60
2022-10-04T22:27:44.107Z,4.03
2022-10-04T22:30:22.493Z,3.80
2022-10-04T22:32:49.936Z,4.25
2022-10-04T22:35:18.638Z,3.72
2022-10-04T22:37:46.119Z,4.47
2022-10-04T22:40:16.020Z,5.38
2022-10-04T22:42:43.438Z,3.75
2022-10-04T22:45:17.013Z,3.58
2022-10-04T22:47:45.781Z,3.70
2022-10-04T22:50:18.264Z,4.25
2022-10-04T22:52:45.697Z,3.95
2022-10-04T22:55:14.346Z,3.42
2022-10-04T22:57:41.806Z,4.80
2022-10-04T23:00:11.411Z,3.50
2022-10-04T23:02:38.911Z,3.58
2022-10-04T23:05:13.124Z,3.65
2022-10-04T23:07:40.687Z,4.57
2022-10-04T23:10:08.813Z,4.93
2022-10-04T23:12:36.303Z,3.40
2022-10-04T23:15:06.183Z,4.78
2022-10-04T23:17:35.259Z,3.72
2022-10-04T23:20:06.887Z,3.67
2022-10-04T23:22:35.697Z,3.80
2022-10-04T23:25:03.167Z,3.90
2022-10-04T23:27:30.732Z,4.20
2022-10-04T23:29:59.436Z,3.33
2022-10-04T23:32:26.889Z,3.83
2022-10-04T23:34:56.974Z,3.05
2022-10-04T23:37:26.649Z,3.47
2022-10-04T23:39:55.413Z,3.33
2022-10-04T23:42:28.703Z,4.15
2022-10-04T23:44:56.463Z,4.38
2022-10-04T23:47:24.272Z,3.72
2022-10-04T23:49:52.908Z,3.30
2022-10-04T23:52:21.415Z,3.45
2022-10-04T23:54:49.148Z,3.28
2022-10-04T23:57:20.851Z,3.97
2022-10-04T23:59:48.287Z,4.05
